Time;durP1;ratioP1;P1;durP2;ratioP2;P2;SDS_P1;SDS_P2;PMS_P1;PMS_P2;Temp;Humidity;BMP_temperature;BMP_pressure;BME280_temperature;BME280_humidity;BME280_pressure;Samples;Min_cycle;Max_cycle;Signal;HPM_P1;HPM_P2
2022/07/29 00:00:11;;;;;;;2.17;1.80;;;;;;;19.15;55.55;95623.38;5049839;28;20104;-63
2022/07/29 00:02:37;;;;;;;2.58;2.25;;;;;;;19.11;55.34;95626.63;5048472;28;20029;-63
2022/07/29 00:05:04;;;;;;;3.72;2.22;;;;;;;19.10;55.88;95627.66;5049199;28;20039;-63
2022/07/29 00:07:30;;;;;;;2.50;2.30;;;;;;;19.00;57.01;95618.16;5049879;28;20040;-63
2022/07/29 00:09:55;;;;;;;2.00;1.90;;;;;;;18.94;56.40;95624.25;5049393;28;20029;-63
2022/07/29 00:12:23;;;;;;;3.78;2.20;;;;;;;18.98;56.44;95628.19;5049564;28;20407;-63
2022/07/29 00:14:48;;;;;;;3.30;2.40;;;;;;;19.03;55.79;95624.94;5049712;28;20104;-63
2022/07/29 00:17:14;;;;;;;3.05;2.03;;;;;;;19.06;55.81;95629.88;5049470;28;20031;-63
2022/07/29 00:19:39;;;;;;;2.42;1.98;;;;;;;19.02;55.29;95629.47;5049517;28;20049;-63
2022/07/29 00:22:04;;;;;;;2.38;2.25;;;;;;;18.95;56.13;95633.09;5048465;28;20112;-63
2022/07/29 00:24:30;;;;;;;3.50;2.13;;;;;;;18.90;56.24;95639.00;5039400;28;20060;-63
2022/07/29 00:26:55;;;;;;;2.60;2.40;;;;;;;18.87;56.17;95640.19;5049058;28;20033;-63
2022/07/29 00:29:20;;;;;;;2.40;2.20;;;;;;;18.90;56.45;95641.66;5049951;28;20029;-64
2022/07/29 00:31:46;;;;;;;3.20;2.20;;;;;;;18.86;56.26;95633.22;5049312;28;20127;-63
2022/07/29 00:36:56;;;;;;;2.97;2.50;;;;;;;18.81;56.28;95632.19;5048791;28;20511;-63
2022/07/29 00:39:22;;;;;;;3.58;2.15;;;;;;;18.73;57.28;95633.16;5040850;28;20029;-64
2022/07/29 00:41:47;;;;;;;2.60;2.40;;;;;;;18.70;59.49;95631.69;5049403;28;20446;-64
2022/07/29 00:44:12;;;;;;;2.50;2.30;;;;;;;18.73;57.26;95630.50;5049055;28;20029;-63
2022/07/29 00:46:38;;;;;;;2.20;2.10;;;;;;;18.79;56.60;95639.53;5049261;28;20029;-63
2022/07/29 00:49:03;;;;;;;2.35;2.15;;;;;;;18.67;56.82;95636.56;5049084;28;20112;-63
2022/07/29 00:51:30;;;;;;;2.65;2.00;;;;;;;18.61;57.48;95643.53;5049155;28;20404;-63
2022/07/29 00:53:56;;;;;;;2.30;2.10;;;;;;;18.54;58.01;95648.81;5049155;28;20032;-63
2022/07/29 00:56:22;;;;;;;3.03;2.40;;;;;;;18.49;58.12;95640.56;5049526;28;20021;-63
2022/07/29 00:58:50;;;;;;;2.20;2.10;;;;;;;18.47;57.96;95642.59;5049079;28;20045;-63
2022/07/29 01:01:15;;;;;;;3.00;2.17;;;;;;;18.47;57.73;95643.41;5048999;28;20403;-63
2022/07/29 01:03:41;;;;;;;2.38;2.03;;;;;;;18.47;57.03;95646.09;5049850;28;20033;-63
2022/07/29 01:06:06;;;;;;;2.95;2.17;;;;;;;18.52;57.75;95645.50;5052642;28;20116;-63
2022/07/29 01:08:32;;;;;;;2.17;2.00;;;;;;;18.49;57.89;95640.56;5066062;28;20520;-62
2022/07/29 01:11:00;;;;;;;2.95;2.10;;;;;;;18.47;57.97;95637.28;5052965;28;20032;-63
2022/07/29 01:13:26;;;;;;;4.95;2.20;;;;;;;18.51;58.02;95630.53;5053113;28;20488;-64
2022/07/29 01:15:58;;;;;;;2.20;2.10;;;;;;;18.52;58.09;95637.50;5052357;28;20061;-63
2022/07/29 01:18:31;;;;;;;2.50;2.38;;;;;;;18.51;58.17;95632.38;5048908;28;20025;-63
2022/07/29 01:21:19;;;;;;;2.15;2.05;;;;;;;18.44;59.83;95633.16;5055426;28;20048;-63
2022/07/29 01:24:07;;;;;;;3.05;2.60;;;;;;;18.38;60.92;95625.94;5019550;28;20116;-63
2022/07/29 01:26:39;;;;;;;4.47;2.50;;;;;;;18.30;59.77;95626.88;5060937;28;20032;-63
2022/07/29 01:29:10;;;;;;;5.00;2.20;;;;;;;18.33;59.36;95631.81;5062450;28;20031;-63
2022/07/29 01:31:41;;;;;;;4.93;2.17;;;;;;;18.31;59.71;95620.53;5053468;28;20499;-63
2022/07/29 01:34:10;;;;;;;2.08;1.98;;;;;;;18.24;59.89;95633.00;5052516;28;20025;-63
2022/07/29 01:37:21;;;;;;;2.35;2.22;;;;;;;18.17;60.63;95630.25;5053710;28;20029;-63
2022/07/29 01:39:51;;;;;;;2.83;2.20;;;;;;;18.09;60.28;95634.88;5047678;28;20112;-63
2022/07/29 01:42:37;;;;;;;2.70;2.50;;;;;;;18.03;60.12;95628.47;5051995;28;20029;-63
2022/07/29 01:45:10;;;;;;;2.50;2.30;;;;;;;18.04;59.87;95622.13;5051511;28;20090;-63
2022/07/29 01:47:53;;;;;;;4.13;2.05;;;;;;;18.04;59.85;95616.81;5052355;28;20391;-63
2022/07/29 01:50:25;;;;;;;2.75;2.22;;;;;;;18.00;60.41;95616.31;5052119;28;20542;-63
2022/07/29 01:53:03;;;;;;;2.17;2.08;;;;;;;18.01;60.82;95617.16;5052145;28;20491;-63
2022/07/29 01:55:33;;;;;;;2.65;2.45;;;;;;;17.97;60.40;95621.22;5064770;28;20028;-62
2022/07/29 01:58:02;;;;;;;3.50;2.30;;;;;;;17.94;61.30;95609.09;5052220;28;20103;-63
2022/07/29 02:00:31;;;;;;;2.80;2.60;;;;;;;17.91;61.32;95612.16;5052263;28;20017;-63
2022/07/29 02:03:00;;;;;;;2.70;2.40;;;;;;;17.92;60.80;95619.13;5052327;28;20024;-63
2022/07/29 02:05:28;;;;;;;2.60;2.40;;;;;;;17.94;61.18;95622.41;5052053;28;20523;-63
2022/07/29 02:07:57;;;;;;;7.30;3.20;;;;;;;17.98;60.50;95614.88;5040560;28;20056;-63
2022/07/29 02:10:27;;;;;;;2.80;2.60;;;;;;;17.98;60.95;95613.03;5051798;28;20032;-63
2022/07/29 02:12:55;;;;;;;3.53;2.25;;;;;;;17.96;61.15;95615.06;5051915;28;20111;-63
2022/07/29 02:15:23;;;;;;;2.65;2.20;;;;;;;17.94;61.01;95618.94;5051155;28;20025;-63
2022/07/29 02:18:14;;;;;;;4.85;2.55;;;;;;;17.94;61.53;95619.75;5051501;28;20404;-63
2022/07/29 02:20:44;;;;;;;2.75;2.40;;;;;;;17.98;61.48;95617.53;5051012;28;20037;-63
2022/07/29 02:23:12;;;;;;;4.32;2.17;;;;;;;17.92;61.64;95605.00;5051685;28;20021;-63
2022/07/29 02:25:39;;;;;;;2.28;2.17;;;;;;;17.88;61.43;95615.19;5051433;28;20087;-63
2022/07/29 02:28:07;;;;;;;2.47;2.38;;;;;;;17.88;61.08;95613.34;5055495;28;20021;-63
2022/07/29 02:30:36;;;;;;;2.70;2.22;;;;;;;17.89;61.96;95614.19;5051994;28;20036;-63
2022/07/29 02:33:03;;;;;;;2.47;2.28;;;;;;;17.87;62.20;95608.22;5049688;28;20025;-63
2022/07/29 02:35:29;;;;;;;4.35;2.78;;;;;;;17.90;61.79;95613.16;5051793;28;20067;-63
2022/07/29 02:40:41;;;;;;;5.25;2.60;;;;;;;17.81;61.31;95603.66;5051434;28;20126;-63
2022/07/29 02:43:08;;;;;;;3.35;2.35;;;;;;;17.83;61.33;95606.97;5051052;28;20027;-63
2022/07/29 02:45:34;;;;;;;2.63;2.42;;;;;;;17.78;62.29;95598.69;5051071;28;20025;-63
2022/07/29 02:48:03;;;;;;;2.30;2.17;;;;;;;17.74;62.24;95603.59;5051192;28;20044;-63
2022/07/29 02:50:36;;;;;;;2.35;2.25;;;;;;;17.73;62.33;95607.28;5051171;28;20017;-63
2022/07/29 02:53:07;;;;;;;2.53;2.40;;;;;;;17.71;62.28;95601.31;5051384;28;20132;-63
2022/07/29 02:56:06;;;;;;;2.38;2.28;;;;;;;17.64;62.35;95611.03;5049347;28;20463;-63
2022/07/29 02:58:37;;;;;;;2.22;2.13;;;;;;;17.59;62.41;95616.97;5010954;28;20084;-62
2022/07/29 03:01:08;;;;;;;2.67;2.47;;;;;;;17.62;62.68;95613.91;5011606;28;20052;-63
2022/07/29 03:03:37;;;;;;;3.00;2.70;;;;;;;17.58;62.58;95617.97;5011361;28;20046;-62
2022/07/29 03:06:04;;;;;;;2.67;2.42;;;;;;;17.58;62.69;95620.63;5010620;28;20088;-63
2022/07/29 03:08:32;;;;;;;2.50;2.35;;;;;;;17.57;62.84;95621.63;5010191;28;20449;-61
2022/07/29 03:10:58;;;;;;;2.72;2.50;;;;;;;17.52;62.75;95618.69;5008026;28;20018;-63
2022/07/29 03:13:24;;;;;;;2.72;2.22;;;;;;;17.56;62.38;95622.63;5010987;28;20030;-63
2022/07/29 03:15:51;;;;;;;2.30;2.20;;;;;;;17.62;62.57;95611.25;5010843;28;20096;-63
2022/07/29 03:18:17;;;;;;;3.28;2.75;;;;;;;17.68;62.34;95617.63;5009755;28;20527;-63
2022/07/29 03:20:42;;;;;;;3.42;2.20;;;;;;;17.70;61.93;95610.31;5010556;28;20091;-63
2022/07/29 03:23:08;;;;;;;3.08;2.72;;;;;;;17.68;62.34;95620.28;5002523;28;20034;-63
2022/07/29 03:25:34;;;;;;;2.65;2.42;;;;;;;17.63;62.31;95623.53;5010912;28;20052;-63
2022/07/29 03:28:00;;;;;;;3.00;2.67;;;;;;;17.57;62.25;95618.94;5013053;28;20140;-63
2022/07/29 03:30:25;;;;;;;2.60;2.40;;;;;;;17.52;62.84;95624.84;5020012;28;20120;-63
2022/07/29 03:32:52;;;;;;;2.40;2.20;;;;;;;17.49;64.00;95627.06;5010646;28;20033;-63
2022/07/29 03:35:18;;;;;;;2.70;2.50;;;;;;;17.47;63.46;95625.41;5010646;28;20061;-63
2022/07/29 03:37:44;;;;;;;2.58;2.38;;;;;;;17.46;63.29;95634.41;5009515;28;20108;-63
2022/07/29 03:40:13;;;;;;;2.58;2.38;;;;;;;17.41;63.12;95636.81;5009864;28;20153;-63
2022/07/29 03:42:42;;;;;;;2.65;2.38;;;;;;;17.41;63.10;95642.13;5010708;28;20036;-63
2022/07/29 03:45:12;;;;;;;3.03;2.65;;;;;;;17.37;64.74;95646.19;5009766;28;20029;-64
2022/07/29 03:47:42;;;;;;;2.90;2.60;;;;;;;17.38;63.77;95642.50;5010397;28;20079;-63
2022/07/29 03:50:11;;;;;;;2.58;2.38;;;;;;;17.37;64.44;95645.34;5007578;28;20022;-63
2022/07/29 03:52:37;;;;;;;8.27;2.40;;;;;;;17.36;64.71;95644.53;5010538;28;20109;-63
2022/07/29 03:55:03;;;;;;;5.53;2.40;;;;;;;17.41;65.12;95654.59;5009935;28;20116;-63
2022/07/29 03:57:31;;;;;;;4.60;2.30;;;;;;;17.37;64.60;95648.84;5025584;28;20052;-63
2022/07/29 03:59:57;;;;;;;3.13;2.53;;;;;;;17.41;63.62;95658.09;5049770;28;20033;-63
2022/07/29 04:02:23;;;;;;;2.25;2.05;;;;;;;17.54;63.24;95654.78;5049673;28;20025;-63
2022/07/29 04:04:49;;;;;;;2.83;2.53;;;;;;;17.52;63.41;95655.94;5049611;28;20500;-63
2022/07/29 04:07:15;;;;;;;8.25;3.67;;;;;;;17.44;64.31;95660.38;5049120;28;20033;-63
2022/07/29 04:09:41;;;;;;;3.47;3.17;;;;;;;17.45;63.73;95670.00;5050109;28;20037;-63
2022/07/29 04:12:07;;;;;;;2.83;2.63;;;;;;;17.47;63.58;95670.66;5049257;28;20040;-63
2022/07/29 04:14:35;;;;;;;2.90;2.70;;;;;;;17.44;63.75;95675.50;5049477;28;20539;-63
2022/07/29 04:17:01;;;;;;;2.70;2.50;;;;;;;17.53;63.10;95678.91;5048416;28;20051;-63
2022/07/29 04:19:26;;;;;;;2.88;2.17;;;;;;;17.61;62.44;95676.97;5048261;28;20052;-63
2022/07/29 04:21:52;;;;;;;2.40;2.20;;;;;;;17.63;62.98;95679.44;5049313;28;20500;-63
2022/07/29 04:24:17;;;;;;;2.55;2.35;;;;;;;17.67;63.12;95682.53;5049275;28;20052;-63
2022/07/29 04:26:43;;;;;;;7.45;6.82;;;;;;;17.74;62.72;95678.13;5048506;28;20036;-63
2022/07/29 04:29:09;;;;;;;5.45;4.95;;;;;;;17.78;62.79;95676.75;5062245;28;20488;-63
2022/07/29 04:31:34;;;;;;;2.90;2.70;;;;;;;17.79;63.13;95682.88;5049593;28;20438;-63
2022/07/29 04:33:59;;;;;;;5.47;2.80;;;;;;;17.79;63.20;95680.22;5049295;28;20449;-63
2022/07/29 04:36:25;;;;;;;3.53;2.85;;;;;;;17.78;62.85;95678.56;5048501;28;20538;-63
2022/07/29 04:38:50;;;;;;;2.88;2.67;;;;;;;17.83;62.14;95677.00;5050322;28;20040;-63
2022/07/29 04:41:16;;;;;;;2.78;2.58;;;;;;;17.82;62.36;95671.88;5053455;28;20477;-63
2022/07/29 04:43:41;;;;;;;2.88;2.67;;;;;;;17.79;62.16;95689.03;5053667;28;20021;-63
2022/07/29 04:46:06;;;;;;;2.65;2.45;;;;;;;17.76;63.02;95684.91;5052866;28;20053;-63
2022/07/29 04:48:32;;;;;;;3.42;3.13;;;;;;;17.76;63.09;95692.91;5052833;28;20075;-63
2022/07/29 04:50:58;;;;;;;3.30;2.90;;;;;;;17.78;63.31;95692.72;5053434;28;20018;-63
2022/07/29 04:53:23;;;;;;;7.45;3.58;;;;;;;17.81;63.27;95697.66;5053156;28;20032;-63
2022/07/29 04:55:49;;;;;;;4.68;3.20;;;;;;;17.85;63.69;95690.13;5053067;28;20017;-63
2022/07/29 04:58:14;;;;;;;3.55;3.25;;;;;;;17.93;62.96;95692.69;5053299;28;20128;-63
2022/07/29 05:00:40;;;;;;;4.93;2.97;;;;;;;18.03;62.99;95700.41;5053047;28;20491;-63
2022/07/29 05:03:05;;;;;;;2.90;2.70;;;;;;;18.13;62.72;95700.09;5052919;28;20021;-63
2022/07/29 05:05:31;;;;;;;3.08;2.70;;;;;;;18.19;63.53;95691.31;5052699;28;20492;-63
2022/07/29 05:07:57;;;;;;;2.55;2.35;;;;;;;18.19;63.10;95688.66;5053002;28;20040;-63
2022/07/29 05:10:22;;;;;;;2.60;2.40;;;;;;;18.19;62.65;95696.66;5052870;28;20116;-63
2022/07/29 05:12:48;;;;;;;3.55;2.70;;;;;;;18.20;62.81;95692.97;5052957;28;20025;-63
2022/07/29 05:15:14;;;;;;;2.42;2.30;;;;;;;18.19;63.33;95696.66;5051584;28;20388;-63
2022/07/29 05:17:39;;;;;;;2.90;2.70;;;;;;;18.22;63.53;95706.13;5050790;28;20037;-63
2022/07/29 05:20:05;;;;;;;4.18;2.97;;;;;;;18.21;64.57;95699.16;5046020;28;20373;-63
2022/07/29 05:22:31;;;;;;;7.70;2.80;;;;;;;18.22;65.42;95703.47;5048595;28;20017;-63
2022/07/29 05:24:56;;;;;;;7.35;2.95;;;;;;;18.25;64.60;95700.41;5052168;28;20400;-62
2022/07/29 05:27:22;;;;;;;4.05;2.92;;;;;;;18.33;64.32;95711.78;5049604;28;20112;-63
2022/07/29 05:29:47;;;;;;;4.90;2.67;;;;;;;18.46;64.19;95705.75;5050344;28;20049;-63
2022/07/29 05:32:13;;;;;;;7.28;3.13;;;;;;;18.54;64.05;95707.44;5049602;28;20025;-63
2022/07/29 05:34:38;;;;;;;9.45;2.63;;;;;;;18.62;63.80;95711.81;5051745;28;20021;-63
2022/07/29 05:37:03;;;;;;;3.47;2.45;;;;;;;18.66;63.45;95714.91;5051914;28;20017;-61
2022/07/29 05:39:29;;;;;;;6.22;2.70;;;;;;;18.73;63.92;95721.16;5051144;28;20031;-61
2022/07/29 05:41:54;;;;;;;4.75;3.38;;;;;;;18.83;63.45;95726.97;5051325;28;20070;-62
2022/07/29 05:44:20;;;;;;;5.07;2.80;;;;;;;18.93;61.98;95725.81;5049107;28;20492;-63
2022/07/29 05:46:45;;;;;;;2.55;2.35;;;;;;;18.93;61.88;95731.97;5047314;28;20085;-62
2022/07/29 05:49:11;;;;;;;7.18;2.58;;;;;;;18.88;62.82;95735.19;5051498;28;20048;-62
2022/07/29 05:51:36;;;;;;;3.15;2.60;;;;;;;18.82;62.89;95730.66;5050158;28;20052;-62
2022/07/29 05:54:01;;;;;;;6.40;2.90;;;;;;;18.80;62.40;95735.34;5043705;28;20021;-62
2022/07/29 05:56:27;;;;;;;4.28;2.72;;;;;;;18.72;62.40;95725.63;5050369;28;21919;-63
2022/07/29 05:58:52;;;;;;;3.40;2.40;;;;;;;18.76;62.32;95723.44;5049237;28;20045;-64
2022/07/29 06:01:18;;;;;;;6.35;3.00;;;;;;;18.80;62.58;95726.53;5051214;28;20024;-63
2022/07/29 06:03:44;;;;;;;4.50;2.60;;;;;;;18.88;62.59;95732.53;5051701;28;20388;-62
2022/07/29 06:06:09;;;;;;;3.55;2.63;;;;;;;18.89;62.39;95731.50;5048653;28;20162;-62
2022/07/29 06:08:36;;;;;;;8.23;2.70;;;;;;;19.00;61.30;95737.38;5043949;28;20108;-61
2022/07/29 06:11:02;;;;;;;5.18;2.75;;;;;;;19.11;60.85;95739.50;5043076;28;20021;-60
2022/07/29 06:13:27;;;;;;;2.83;2.42;;;;;;;19.24;59.84;95743.28;5051587;28;20026;-61
2022/07/29 06:15:53;;;;;;;2.78;2.35;;;;;;;19.37;60.06;95748.72;5050046;28;20029;-61
2022/07/29 06:18:20;;;;;;;2.67;2.47;;;;;;;19.46;59.75;95747.53;5050591;28;20029;-61
2022/07/29 06:20:46;;;;;;;3.20;2.55;;;;;;;19.54;59.63;95745.72;5049570;28;20033;-61
2022/07/29 06:23:11;;;;;;;5.68;2.90;;;;;;;19.58;59.00;95750.47;5048598;28;20020;-61
2022/07/29 06:25:37;;;;;;;3.83;2.92;;;;;;;19.59;58.65;95746.78;5049412;28;20057;-61
2022/07/29 06:28:03;;;;;;;5.28;2.90;;;;;;;19.64;57.28;95742.69;5053179;28;20356;-61
2022/07/29 06:30:29;;;;;;;5.40;3.05;;;;;;;19.60;59.68;95745.75;5058224;28;20017;-61
2022/07/29 06:32:55;;;;;;;8.93;2.83;;;;;;;19.54;61.51;95757.25;5048006;28;20122;-61
2022/07/29 06:35:21;;;;;;;5.28;2.90;;;;;;;19.53;62.58;95760.09;5048758;28;20039;-61
2022/07/29 06:37:47;;;;;;;2.60;2.40;;;;;;;19.49;63.47;95761.50;5051051;28;20036;-61
2022/07/29 06:42:56;;;;;;;3.00;2.40;;;;;;;19.67;63.99;95758.31;5050951;28;20392;-61
2022/07/29 06:45:21;;;;;;;6.40;2.70;;;;;;;19.83;63.46;95752.66;5051493;28;20025;-61
2022/07/29 06:47:48;;;;;;;4.10;2.92;;;;;;;19.99;61.93;95751.50;5051030;28;20548;-61
2022/07/29 06:50:13;;;;;;;3.22;2.75;;;;;;;20.16;60.87;95741.31;5050888;28;20519;-61
2022/07/29 06:52:39;;;;;;;6.60;2.67;;;;;;;20.25;60.74;95743.78;5051002;28;20025;-61
2022/07/29 06:55:05;;;;;;;6.30;2.83;;;;;;;20.31;60.90;95738.47;5050449;28;20033;-61
2022/07/29 06:57:31;;;;;;;4.85;2.80;;;;;;;20.44;59.38;95750.19;5050845;28;20044;-61
2022/07/29 06:59:56;;;;;;;8.27;4.80;;;;;;;20.43;58.09;95752.06;5050689;28;20435;-62
2022/07/29 07:02:22;;;;;;;6.97;6.28;;;;;;;20.47;57.50;95761.31;5051086;28;20053;-61
2022/07/29 07:04:47;;;;;;;8.52;6.00;;;;;;;20.54;57.37;95766.69;5050715;28;20112;-61
2022/07/29 07:07:13;;;;;;;10.30;2.42;;;;;;;20.54;58.17;95771.19;5050455;28;20096;-62
2022/07/29 07:09:39;;;;;;;3.92;2.60;;;;;;;20.49;58.38;95774.50;5050553;28;20099;-61
2022/07/29 07:12:05;;;;;;;4.55;2.85;;;;;;;20.44;56.45;95775.09;5050597;28;20021;-62
2022/07/29 07:14:31;;;;;;;3.47;2.60;;;;;;;20.33;55.99;95773.81;5050742;28;20039;-61
2022/07/29 07:16:56;;;;;;;2.90;2.70;;;;;;;20.32;55.95;95772.19;5050462;28;20040;-62
2022/07/29 07:19:22;;;;;;;3.47;2.85;;;;;;;20.36;56.85;95771.78;5032199;28;20025;-61
2022/07/29 07:21:47;;;;;;;2.60;2.40;;;;;;;20.55;56.47;95775.50;5050433;28;20033;-61
2022/07/29 07:24:13;;;;;;;3.30;2.90;;;;;;;20.70;56.06;95778.03;5050342;28;20032;-60
2022/07/29 07:26:39;;;;;;;3.25;2.58;;;;;;;20.87;56.70;95775.81;5050084;28;20025;-61
2022/07/29 07:29:05;;;;;;;6.88;2.53;;;;;;;21.22;55.28;95774.78;5062314;28;20415;-61
2022/07/29 07:31:30;;;;;;;6.55;2.75;;;;;;;21.69;54.11;95772.06;5050490;28;20021;-61
2022/07/29 07:33:55;;;;;;;2.90;2.40;;;;;;;22.30;52.56;95778.81;5050583;28;20060;-62
2022/07/29 07:36:22;;;;;;;3.28;2.72;;;;;;;22.79;50.96;95786.41;5050360;28;20232;-62
2022/07/29 07:38:47;;;;;;;5.80;3.28;;;;;;;22.93;50.69;95786.31;5050177;28;20489;-62
2022/07/29 07:41:13;;;;;;;8.15;3.28;;;;;;;22.63;50.68;95784.22;5049936;28;20037;-61
2022/07/29 07:43:38;;;;;;;3.75;3.00;;;;;;;22.36;51.57;95800.44;5050176;28;20108;-61
2022/07/29 07:46:04;;;;;;;6.00;2.95;;;;;;;21.83;52.54;95803.13;5050111;28;20040;-62
2022/07/29 07:48:29;;;;;;;6.07;2.80;;;;;;;21.42;54.01;95805.03;5050152;28;20100;-61
2022/07/29 07:50:55;;;;;;;2.78;2.58;;;;;;;21.13;53.21;95809.78;5050077;28;20385;-61
2022/07/29 07:53:20;;;;;;;2.83;2.53;;;;;;;21.07;53.41;95815.94;5049854;28;20064;-62
2022/07/29 07:55:46;;;;;;;3.28;2.97;;;;;;;20.89;54.20;95821.91;5050026;28;20029;-62
2022/07/29 07:58:11;;;;;;;3.35;3.05;;;;;;;20.83;54.21;95817.38;5049447;28;20045;-61
2022/07/29 08:00:37;;;;;;;5.93;2.88;;;;;;;20.76;53.79;95814.66;5049866;28;20079;-62
2022/07/29 08:03:02;;;;;;;4.03;2.63;;;;;;;20.79;54.28;95827.63;5049893;28;20547;-61
2022/07/29 08:05:28;;;;;;;2.92;2.63;;;;;;;20.59;55.53;95825.72;5049676;28;20021;-61
2022/07/29 08:07:53;;;;;;;3.63;3.20;;;;;;;20.50;55.61;95828.78;5049727;28;20073;-61
2022/07/29 08:13:05;;;;;;;4.33;2.53;;;;;;;20.26;56.27;95831.81;5049697;28;20056;-62
2022/07/29 08:15:30;;;;;;;5.05;3.75;;;;;;;20.17;56.92;95820.47;5049325;28;20448;-61
2022/07/29 08:17:56;;;;;;;7.63;2.80;;;;;;;20.15;57.94;95819.00;5049672;28;20056;-61
2022/07/29 08:20:21;;;;;;;2.75;2.58;;;;;;;20.16;58.55;95820.63;5049469;28;20021;-61
2022/07/29 08:22:46;;;;;;;3.00;2.80;;;;;;;20.13;58.53;95818.38;5049660;28;20021;-61
2022/07/29 08:25:12;;;;;;;2.90;2.70;;;;;;;20.25;57.92;95819.47;5049351;28;20017;-61
2022/07/29 08:27:37;;;;;;;3.15;2.95;;;;;;;20.44;57.41;95817.88;5049464;28;20388;-62
2022/07/29 08:30:03;;;;;;;2.58;2.30;;;;;;;20.52;56.81;95816.88;5062413;28;20028;-62
2022/07/29 08:32:29;;;;;;;11.85;2.80;;;;;;;20.64;55.76;95810.91;5049833;28;20423;-61
2022/07/29 08:34:54;;;;;;;2.92;2.65;;;;;;;20.75;55.25;95815.69;5049231;28;20029;-62
2022/07/29 08:37:20;;;;;;;2.70;2.50;;;;;;;20.93;54.90;95812.44;5049482;28;20025;-61
2022/07/29 08:39:46;;;;;;;2.90;2.47;;;;;;;21.14;54.73;95807.91;5049147;28;20025;-61
2022/07/29 08:42:13;;;;;;;6.53;2.50;;;;;;;21.74;53.48;95821.28;5049450;28;20365;-62
2022/07/29 08:44:39;;;;;;;3.75;2.67;;;;;;;22.44;52.21;95819.00;5049366;28;20079;-61
2022/07/29 08:47:05;;;;;;;3.13;2.72;;;;;;;22.48;52.07;95814.03;5049743;28;20032;-61
2022/07/29 08:49:33;;;;;;;4.05;2.70;;;;;;;22.60;52.82;95797.03;5049512;28;20025;-61
2022/07/29 08:52:00;;;;;;;4.43;2.90;;;;;;;23.78;50.09;95797.56;5049305;28;20511;-62
2022/07/29 08:54:26;;;;;;;3.65;2.25;;;;;;;24.80;47.55;95793.44;5049415;28;20036;-62
2022/07/29 08:56:51;;;;;;;2.95;2.60;;;;;;;24.80;46.26;95793.44;5049123;28;20498;-62
2022/07/29 08:59:20;;;;;;;4.93;2.90;;;;;;;24.21;47.79;95796.69;5049353;28;20029;-62
2022/07/29 09:01:47;;;;;;;3.15;2.83;;;;;;;23.62;49.32;95797.09;5049151;28;20029;-62
2022/07/29 09:04:13;;;;;;;3.10;2.80;;;;;;;23.14;50.68;95801.22;5048874;28;20036;-62
2022/07/29 09:06:44;;;;;;;5.40;2.60;;;;;;;22.69;52.38;95804.84;5048923;28;20044;-62
2022/07/29 09:09:10;;;;;;;4.47;3.00;;;;;;;22.29;54.23;95814.72;5049018;28;20484;-62
2022/07/29 09:11:37;;;;;;;3.17;2.88;;;;;;;21.86;54.96;95815.28;5049396;28;20104;-62
2022/07/29 09:14:03;;;;;;;3.15;2.90;;;;;;;21.69;55.96;95829.13;5049426;28;20273;-62
2022/07/29 09:16:45;;;;;;;2.88;2.38;;;;;;;21.36;58.08;95851.38;5049270;28;20474;-62
2022/07/29 09:19:20;;;;;;;2.95;2.63;;;;;;;20.90;60.11;95911.84;5049054;28;20020;-62
2022/07/29 09:21:58;;;;;;;2.78;2.50;;;;;;;20.78;60.75;95951.72;5049080;28;20025;-61
2022/07/29 09:24:25;;;;;;;2.83;2.53;;;;;;;21.12;60.01;95990.16;5049204;28;20488;-61
2022/07/29 09:26:50;;;;;;;3.08;2.88;;;;;;;21.54;55.95;96016.81;5052839;28;20025;-61
2022/07/29 09:29:22;;;;;;;3.55;2.70;;;;;;;20.85;58.79;96032.03;5064937;28;20127;-61
2022/07/29 09:31:50;;;;;;;6.63;3.90;;;;;;;20.57;65.13;96043.59;5052642;28;20021;-61
2022/07/29 09:34:22;;;;;;;8.77;4.32;;;;;;;19.63;71.38;96053.47;5052627;28;20531;-63
2022/07/29 09:36:49;;;;;;;8.75;4.40;;;;;;;18.81;77.45;96062.38;5052510;28;20056;-63
2022/07/29 09:39:26;;;;;;;14.63;4.85;;;;;;;18.08;81.58;96056.81;5052508;28;20028;-64
2022/07/29 09:41:54;;;;;;;10.15;4.30;;;;;;;17.70;87.02;96063.72;5052511;28;20116;-64
2022/07/29 09:44:21;;;;;;;8.70;4.57;;;;;;;17.60;87.23;96068.47;5052355;28;20037;-64
2022/07/29 09:47:08;;;;;;;5.93;4.10;;;;;;;17.48;90.52;96084.00;5052190;28;20484;-63
2022/07/29 09:49:52;;;;;;;6.32;4.10;;;;;;;17.43;93.25;96081.88;5052228;28;20025;-64
2022/07/29 09:52:18;;;;;;;10.35;4.80;;;;;;;17.42;93.49;96090.84;5052213;28;20404;-65
2022/07/29 09:54:44;;;;;;;7.03;4.40;;;;;;;17.44;94.84;96091.50;5052069;28;20029;-64
2022/07/29 09:57:25;;;;;;;11.75;5.07;;;;;;;17.52;93.45;96090.63;5052453;28;20041;-64
2022/07/29 10:00:12;;;;;;;9.13;4.65;;;;;;;17.50;95.60;96082.00;5052131;28;20106;-64
2022/07/29 10:02:40;;;;;;;7.45;4.55;;;;;;;17.38;98.39;96073.59;5052511;28;20174;-64
2022/07/29 10:05:17;;;;;;;8.40;4.72;;;;;;;17.25;97.81;96065.34;5051668;28;20120;-65
2022/07/29 10:07:48;;;;;;;10.98;4.90;;;;;;;17.34;99.69;96058.94;5052123;28;20025;-64
2022/07/29 10:10:31;;;;;;;5.00;4.20;;;;;;;17.28;99.13;96062.31;5051925;28;20065;-64
2022/07/29 10:12:58;;;;;;;5.25;4.43;;;;;;;17.24;98.39;96059.19;5051916;28;20040;-63
2022/07/29 10:15:26;;;;;;;4.72;3.80;;;;;;;17.30;99.09;96058.50;5051751;28;20048;-63
2022/07/29 10:17:53;;;;;;;9.15;4.65;;;;;;;17.29;100.00;96063.97;5051432;28;20036;-63
2022/07/29 10:20:20;;;;;;;11.98;5.00;;;;;;;17.32;100.00;96066.28;5051352;28;20139;-63
2022/07/29 10:22:47;;;;;;;6.35;4.40;;;;;;;17.41;100.00;96059.94;5051619;28;20472;-63
2022/07/29 10:25:14;;;;;;;7.15;4.30;;;;;;;17.55;100.00;96058.34;5051980;28;20029;-62
2022/07/29 10:27:39;;;;;;;10.23;4.22;;;;;;;17.58;99.95;96055.31;5052145;28;20511;-63
2022/07/29 10:30:06;;;;;;;10.10;4.15;;;;;;;17.80;98.01;96049.34;5063648;28;20025;-63
2022/07/29 10:32:52;;;;;;;7.05;4.32;;;;;;;17.76;97.33;96052.34;5051602;28;20492;-63
2022/07/29 10:35:39;;;;;;;6.07;4.68;;;;;;;17.75;98.43;96050.69;5051527;28;20025;-62
2022/07/29 10:38:27;;;;;;;4.97;4.53;;;;;;;17.62;100.00;96053.13;5050857;28;20021;-62
2022/07/29 10:43:47;;;;;;;5.15;3.80;;;;;;;17.74;99.53;96056.22;5051718;28;20090;-61
2022/07/29 10:46:14;;;;;;;6.55;4.57;;;;;;;17.74;100.00;96057.03;5051371;28;20536;-61
2022/07/29 10:49:05;;;;;;;9.40;4.20;;;;;;;17.83;100.00;96054.31;5051386;28;20499;-62
2022/07/29 10:52:04;;;;;;;6.72;4.10;;;;;;;17.82;100.00;96056.13;5050993;28;20029;-61
2022/07/29 10:54:53;;;;;;;6.05;4.68;;;;;;;17.80;99.79;96055.50;5051196;28;20029;-61
2022/07/29 10:57:27;;;;;;;6.00;4.38;;;;;;;17.87;100.00;96052.94;5050916;28;20053;-61
2022/07/29 11:00:04;;;;;;;9.40;5.18;;;;;;;17.99;100.00;96056.00;5050959;28;20032;-61
2022/07/29 11:02:36;;;;;;;6.35;4.47;;;;;;;18.04;100.00;96062.50;5051038;28;20074;-61
2022/07/29 11:05:15;;;;;;;5.97;4.32;;;;;;;17.93;100.00;96054.88;5050669;28;20037;-62
2022/07/29 11:08:12;;;;;;;7.55;5.07;;;;;;;17.87;100.00;96063.59;5050742;28;20025;-61
2022/07/29 11:10:38;;;;;;;8.15;5.18;;;;;;;17.78;100.00;96062.00;5050604;28;20377;-61
2022/07/29 11:13:04;;;;;;;8.23;5.43;;;;;;;17.79;100.00;96068.97;5050868;28;20037;-62
2022/07/29 11:15:53;;;;;;;6.80;4.85;;;;;;;17.71;100.00;96064.56;5050614;28;20082;-61
2022/07/29 11:18:18;;;;;;;5.78;4.88;;;;;;;17.76;100.00;96070.19;5050618;28;20025;-61
2022/07/29 11:20:53;;;;;;;6.78;5.20;;;;;;;17.80;100.00;96068.00;5050772;28;20053;-61
2022/07/29 11:23:27;;;;;;;6.75;4.95;;;;;;;17.75;100.00;96066.66;5050745;28;20029;-62
2022/07/29 11:26:19;;;;;;;6.88;4.82;;;;;;;17.69;100.00;96072.72;5050347;28;20028;-62
2022/07/29 11:28:54;;;;;;;6.20;4.88;;;;;;;17.63;100.00;96070.75;5060055;28;20028;-61
2022/07/29 11:31:35;;;;;;;7.30;5.03;;;;;;;17.67;100.00;96061.41;5052058;28;20017;-62
2022/07/29 11:34:23;;;;;;;10.15;4.97;;;;;;;17.68;100.00;96059.56;5050320;28;20252;-61
2022/07/29 11:37:10;;;;;;;7.63;5.63;;;;;;;17.66;100.00;96069.56;5050512;28;20086;-62
2022/07/29 11:39:42;;;;;;;9.05;5.95;;;;;;;17.63;100.00;96068.09;5050074;28;20028;-61
2022/07/29 11:42:16;;;;;;;6.60;5.28;;;;;;;17.70;100.00;96055.72;5050327;28;20021;-61
2022/07/29 11:44:54;;;;;;;8.73;5.70;;;;;;;17.74;100.00;96054.38;5050150;28;20036;-61
2022/07/29 11:47:22;;;;;;;9.48;5.90;;;;;;;17.73;100.00;96047.38;5050440;28;20021;-61
2022/07/29 11:49:50;;;;;;;8.45;5.05;;;;;;;17.69;100.00;96050.59;5049315;28;20033;-61
2022/07/29 11:52:16;;;;;;;9.07;5.07;;;;;;;17.74;100.00;96054.38;5050438;28;20094;-61